createdAt,value
2023-04-07T00:00:27.708Z,938.89
2023-04-07T00:01:27.731Z,938.87
2023-04-07T00:02:27.796Z,938.83
2023-04-07T00:03:27.856Z,938.85
2023-04-07T00:04:27.976Z,938.83
2023-04-07T00:05:27.707Z,938.81
2023-04-07T00:06:27.623Z,938.81
2023-04-07T00:07:27.674Z,938.79
2023-04-07T00:08:27.613Z,938.82
2023-04-07T00:09:27.613Z,938.80
2023-04-07T00:10:27.685Z,938.87
2023-04-07T00:11:27.622Z,938.83
2023-04-07T00:12:27.652Z,938.80
2023-04-07T00:13:27.991Z,938.84
2023-04-07T00:14:27.563Z,938.85
2023-04-07T00:15:27.549Z,938.79
2023-04-07T00:16:27.640Z,938.78
2023-04-07T00:17:27.588Z,938.78
2023-04-07T00:18:27.615Z,938.81
2023-04-07T00:19:27.505Z,938.74
2023-04-07T00:20:27.513Z,938.77
2023-04-07T00:21:27.501Z,938.73
2023-04-07T00:22:27.513Z,938.73
2023-04-07T00:23:27.473Z,938.69
2023-04-07T00:24:34.282Z,938.76
2023-04-07T00:25:28.448Z,938.69
2023-04-07T00:26:27.439Z,938.65
2023-04-07T00:27:27.521Z,938.71
2023-04-07T00:28:27.469Z,938.68
2023-04-07T00:29:27.422Z,938.65
2023-04-07T00:30:27.391Z,938.66
2023-04-07T00:31:27.433Z,938.64
2023-04-07T00:32:27.393Z,938.58
2023-04-07T00:33:27.416Z,938.61
2023-04-07T00:34:27.345Z,938.65
2023-04-07T00:35:27.365Z,938.62
2023-04-07T00:36:27.336Z,938.64
2023-04-07T00:37:27.315Z,938.64
2023-04-07T00:38:27.309Z,938.61
2023-04-07T00:39:27.347Z,938.61
2023-04-07T00:40:27.290Z,938.62
2023-04-07T00:41:27.346Z,938.62
2023-04-07T00:42:27.292Z,938.64
2023-04-07T00:43:27.277Z,938.59
2023-04-07T00:44:27.285Z,938.64
2023-04-07T00:45:27.287Z,938.64
2023-04-07T00:46:27.267Z,938.63
2023-04-07T00:47:27.292Z,938.57
2023-04-07T00:48:27.262Z,938.57
2023-04-07T00:49:27.188Z,938.58
2023-04-07T00:50:27.179Z,938.58
2023-04-07T00:51:27.225Z,938.56
2023-04-07T00:52:27.227Z,938.54
2023-04-07T00:53:27.155Z,938.53
2023-04-07T00:54:27.182Z,938.54
2023-04-07T00:55:27.136Z,938.56
2023-04-07T00:56:27.117Z,938.56
2023-04-07T00:57:27.137Z,938.55
2023-04-07T00:58:27.150Z,938.52
2023-04-07T00:59:27.159Z,938.54
2023-04-07T01:00:27.078Z,938.50
2023-04-07T01:01:27.106Z,938.50
2023-04-07T01:02:27.537Z,938.48
2023-04-07T01:03:27.342Z,938.46
2023-04-07T01:04:27.156Z,938.44
2023-04-07T01:05:27.029Z,938.43
2023-04-07T01:06:27.026Z,938.43
2023-04-07T01:07:27.076Z,938.44
2023-04-07T01:08:26.986Z,938.38
2023-04-07T01:09:26.989Z,938.41
2023-04-07T01:10:26.969Z,938.39
2023-04-07T01:11:27.017Z,938.37
2023-04-07T01:12:26.965Z,938.35
2023-04-07T01:13:26.941Z,938.34
2023-04-07T01:14:26.940Z,938.37
2023-04-07T01:15:26.933Z,938.34
2023-04-07T01:16:27.024Z,938.37
2023-04-07T01:17:26.954Z,938.30
2023-04-07T01:18:26.887Z,938.29
2023-04-07T01:19:26.882Z,938.29
2023-04-07T01:20:26.920Z,938.26
2023-04-07T01:21:26.882Z,938.29
2023-04-07T01:22:26.855Z,938.24
2023-04-07T01:23:26.853Z,938.24
2023-04-07T01:24:26.861Z,938.23
2023-04-07T01:25:26.820Z,938.22
2023-04-07T01:26:26.834Z,938.17
2023-04-07T01:27:26.789Z,938.18
2023-04-07T01:28:26.826Z,938.16
2023-04-07T01:29:26.796Z,938.12
2023-04-07T01:30:26.768Z,938.09
2023-04-07T01:31:26.983Z,938.14
2023-04-07T01:32:26.789Z,938.10
2023-04-07T01:33:26.738Z,938.10
2023-04-07T01:34:26.762Z,938.06
2023-04-07T01:35:26.735Z,938.12
2023-04-07T01:36:26.692Z,938.09
2023-04-07T01:37:26.738Z,938.09
2023-04-07T01:38:26.683Z,938.10
2023-04-07T01:39:26.703Z,938.08
2023-04-07T01:40:26.708Z,938.11
2023-04-07T01:41:26.645Z,938.10
2023-04-07T01:42:26.631Z,938.09
2023-04-07T01:43:26.627Z,938.05
2023-04-07T01:44:26.657Z,938.06
2023-04-07T01:45:26.610Z,938.03
2023-04-07T01:46:26.603Z,938.04
2023-04-07T01:47:26.744Z,938.00
2023-04-07T01:48:26.661Z,937.97
2023-04-07T01:49:26.571Z,937.98
2023-04-07T01:50:26.590Z,937.96
2023-04-07T01:51:26.584Z,937.96
2023-04-07T01:52:26.580Z,937.94
2023-04-07T01:53:26.533Z,937.95
2023-04-07T01:54:26.511Z,937.95
2023-04-07T01:55:26.554Z,937.99
2023-04-07T01:56:26.530Z,937.97
2023-04-07T01:57:26.481Z,937.96
2023-04-07T01:58:26.469Z,937.95
2023-04-07T01:59:26.482Z,937.92
2023-04-07T02:00:26.496Z,937.90
2023-04-07T02:01:26.577Z,937.86
2023-04-07T02:02:26.561Z,937.88
2023-04-07T02:03:26.647Z,937.86
2023-04-07T02:04:26.412Z,937.89
2023-04-07T02:05:26.431Z,937.95
2023-04-07T02:06:26.393Z,937.92
2023-04-07T02:07:26.408Z,937.95
2023-04-07T02:08:26.420Z,937.97
2023-04-07T02:09:26.372Z,937.99
2023-04-07T02:10:26.348Z,937.97
2023-04-07T02:11:26.343Z,937.96
2023-04-07T02:12:26.375Z,937.94
2023-04-07T02:13:26.410Z,937.90
2023-04-07T02:14:26.323Z,937.96
2023-04-07T02:15:26.328Z,937.91
2023-04-07T02:16:26.339Z,937.95
2023-04-07T02:17:26.285Z,937.90
2023-04-07T02:18:26.266Z,937.91
2023-04-07T02:19:26.316Z,937.86
2023-04-07T02:20:26.243Z,937.88
2023-04-07T02:21:26.249Z,937.92
2023-04-07T02:22:26.239Z,937.91
2023-04-07T02:23:26.252Z,937.89
2023-04-07T02:24:26.228Z,937.89
2023-04-07T02:25:26.230Z,937.94
2023-04-07T02:26:26.183Z,937.87
2023-04-07T02:27:26.199Z,937.86
2023-04-07T02:28:26.177Z,937.83
2023-04-07T02:29:26.255Z,937.86
2023-04-07T02:30:26.175Z,937.83
2023-04-07T02:31:26.206Z,937.85
2023-04-07T02:32:26.158Z,937.78
2023-04-07T02:33:26.112Z,937.74
2023-04-07T02:34:26.114Z,937.71
2023-04-07T02:35:26.253Z,937.69
2023-04-07T02:36:26.133Z,937.66
2023-04-07T02:37:26.086Z,937.64
2023-04-07T02:38:26.087Z,937.61
2023-04-07T02:39:26.070Z,937.63
2023-04-07T02:40:26.026Z,937.63
2023-04-07T02:41:26.035Z,937.63
2023-04-07T02:42:26.016Z,937.65
2023-04-07T02:43:26.060Z,937.58
2023-04-07T02:44:26.023Z,937.55
2023-04-07T02:45:25.982Z,937.57
2023-04-07T02:46:26.075Z,937.55
2023-04-07T02:47:25.984Z,937.55
2023-04-07T02:48:25.972Z,937.53
2023-04-07T02:49:25.962Z,937.55
2023-04-07T02:50:25.932Z,937.49
2023-04-07T02:51:25.946Z,937.46
2023-04-07T02:52:25.905Z,937.49
2023-04-07T02:53:25.979Z,937.46
2023-04-07T02:54:25.951Z,937.47
2023-04-07T02:55:25.877Z,937.42
2023-04-07T02:56:25.896Z,937.41
2023-04-07T02:57:25.862Z,937.45
2023-04-07T02:58:25.896Z,937.42
2023-04-07T02:59:25.874Z,937.40
2023-04-07T03:00:25.861Z,937.39
2023-04-07T03:01:25.897Z,937.41
2023-04-07T03:02:25.940Z,937.36
2023-04-07T03:03:25.954Z,937.38
2023-04-07T03:04:25.918Z,937.41
2023-04-07T03:05:25.843Z,937.40
2023-04-07T03:06:25.774Z,937.35
2023-04-07T03:07:25.780Z,937.36
2023-04-07T03:08:25.746Z,937.37
2023-04-07T03:09:25.748Z,937.40
2023-04-07T03:10:25.730Z,937.39
2023-04-07T03:11:25.725Z,937.39
2023-04-07T03:12:25.713Z,937.38
2023-04-07T03:13:25.704Z,937.37
2023-04-07T03:14:25.723Z,937.34
2023-04-07T03:15:25.736Z,937.34
2023-04-07T03:16:25.716Z,937.34
2023-04-07T03:17:25.655Z,937.34
2023-04-07T03:18:25.731Z,937.35
2023-04-07T03:19:25.643Z,937.32
2023-04-07T03:21:42.965Z,937.30
2023-04-07T03:22:42.901Z,937.32
2023-04-07T03:23:42.858Z,937.30
2023-04-07T03:24:42.853Z,937.33
2023-04-07T03:25:42.913Z,937.29
2023-04-07T03:26:42.825Z,937.28
2023-04-07T03:27:42.838Z,937.26
2023-04-07T03:28:42.814Z,937.30
2023-04-07T03:29:42.799Z,937.25
2023-04-07T03:30:42.876Z,937.23
2023-04-07T03:31:42.821Z,937.24
2023-04-07T03:32:42.799Z,937.23
2023-04-07T03:33:42.772Z,937.21
2023-04-07T03:34:42.796Z,937.23
2023-04-07T03:35:42.815Z,937.15
2023-04-07T03:36:42.741Z,937.13
2023-04-07T03:37:42.763Z,937.13
2023-04-07T03:38:42.735Z,937.12
2023-04-07T03:39:42.697Z,937.13
2023-04-07T03:40:42.735Z,937.14
2023-04-07T03:41:42.724Z,937.14
2023-04-07T03:42:42.666Z,937.11
2023-04-07T03:43:42.668Z,937.08
2023-04-07T03:44:42.687Z,937.08
2023-04-07T03:45:42.665Z,937.08
2023-04-07T03:46:42.810Z,937.08
2023-04-07T03:47:42.673Z,937.05
2023-04-07T03:48:42.626Z,937.11
2023-04-07T03:49:42.645Z,937.10
2023-04-07T03:50:42.588Z,937.08
2023-04-07T03:51:42.576Z,937.09
2023-04-07T03:52:42.649Z,937.07
2023-04-07T03:53:42.580Z,937.02
2023-04-07T03:54:42.616Z,937.04
2023-04-07T03:55:42.579Z,937.01
2023-04-07T03:56:42.539Z,936.99
2023-04-07T03:57:42.521Z,937.01
2023-04-07T03:58:42.549Z,936.96
2023-04-07T03:59:42.516Z,936.97
2023-04-07T04:00:42.498Z,936.98
2023-04-07T04:01:42.618Z,936.98
2023-04-07T04:02:42.527Z,936.98
2023-04-07T04:03:42.603Z,936.97
2023-04-07T04:04:42.999Z,936.95
2023-04-07T04:05:42.453Z,937.03
2023-04-07T04:06:42.483Z,936.98
2023-04-07T04:07:42.440Z,936.91
2023-04-07T04:08:42.439Z,936.96
2023-04-07T04:09:42.399Z,936.96
2023-04-07T04:10:42.409Z,936.92
2023-04-07T04:11:42.370Z,936.95
2023-04-07T04:12:42.425Z,936.92
2023-04-07T04:13:42.358Z,936.94
2023-04-07T04:14:42.413Z,936.90
2023-04-07T04:15:42.365Z,936.92
2023-04-07T04:16:47.062Z,936.92
2023-04-07T04:17:42.366Z,936.89
2023-04-07T04:18:42.301Z,936.87
2023-04-07T04:19:42.337Z,936.88
2023-04-07T04:20:42.292Z,936.86
2023-04-07T04:21:42.264Z,936.89
2023-04-07T04:22:42.265Z,936.89
2023-04-07T04:23:42.257Z,936.87
2023-04-07T04:24:42.313Z,936.87
2023-04-07T04:25:42.281Z,936.88
2023-04-07T04:26:42.332Z,936.85
2023-04-07T04:27:42.206Z,936.86
2023-04-07T04:28:42.208Z,936.84
2023-04-07T04:29:42.199Z,936.86
2023-04-07T04:30:42.208Z,936.85
2023-04-07T04:31:42.218Z,936.84
2023-04-07T04:32:42.205Z,936.82
2023-04-07T04:33:42.187Z,936.84
2023-04-07T04:34:42.170Z,936.87
2023-04-07T04:35:42.155Z,936.86
2023-04-07T04:36:42.177Z,936.87
2023-04-07T04:37:42.134Z,936.85
2023-04-07T04:38:42.102Z,936.88
2023-04-07T04:39:42.073Z,936.87
2023-04-07T04:40:42.095Z,936.86
2023-04-07T04:41:42.064Z,936.83
2023-04-07T04:42:42.106Z,936.86
2023-04-07T04:43:42.526Z,936.88
2023-04-07T04:44:42.027Z,936.85
2023-04-07T04:45:42.025Z,936.81
2023-04-07T04:46:42.146Z,936.80
2023-04-07T04:47:42.082Z,936.80
2023-04-07T04:48:42.034Z,936.78
2023-04-07T04:49:42.034Z,936.81
2023-04-07T04:50:41.993Z,936.77
2023-04-07T04:51:42.071Z,936.80
2023-04-07T04:52:42.031Z,936.81
2023-04-07T04:53:42.088Z,936.86
2023-04-07T04:54:41.986Z,936.83
2023-04-07T04:55:41.923Z,936.82
2023-04-07T04:56:41.922Z,936.81
2023-04-07T04:57:41.910Z,936.84
2023-04-07T04:58:41.956Z,936.82
2023-04-07T04:59:41.924Z,936.76
2023-04-07T05:00:41.914Z,936.84
2023-04-07T05:01:41.903Z,936.79
2023-04-07T05:02:42.050Z,936.74
2023-04-07T05:03:41.953Z,936.78
2023-04-07T05:04:42.042Z,936.77
2023-04-07T05:05:41.807Z,936.77
2023-04-07T05:06:41.847Z,936.82
2023-04-07T05:07:41.800Z,936.78
2023-04-07T05:08:41.805Z,936.80
2023-04-07T05:09:41.808Z,936.79
2023-04-07T05:10:41.778Z,936.79
2023-04-07T05:11:41.753Z,936.78
2023-04-07T05:12:41.742Z,936.74
2023-04-07T05:13:41.731Z,936.73
2023-04-07T05:14:41.771Z,936.71
2023-04-07T05:15:41.719Z,936.70
2023-04-07T05:16:46.543Z,936.72
2023-04-07T05:17:41.734Z,936.71
2023-04-07T05:18:41.673Z,936.75
2023-04-07T05:19:41.740Z,936.70
2023-04-07T05:20:41.682Z,936.71
2023-04-07T05:21:41.732Z,936.73
2023-04-07T05:22:41.664Z,936.79
2023-04-07T05:23:41.674Z,936.71
2023-04-07T05:24:41.628Z,936.73
2023-04-07T05:25:41.648Z,936.77
2023-04-07T05:26:41.630Z,936.77
2023-04-07T05:27:41.605Z,936.71
2023-04-07T05:28:41.572Z,936.68
2023-04-07T05:29:41.583Z,936.68
2023-04-07T05:30:41.610Z,936.64
2023-04-07T05:31:41.587Z,936.66
2023-04-07T05:32:41.727Z,936.66
2023-04-07T05:33:41.586Z,936.62
2023-04-07T05:34:41.549Z,936.67
2023-04-07T05:35:41.521Z,936.66
2023-04-07T05:36:41.514Z,936.69
2023-04-07T05:37:41.511Z,936.65
2023-04-07T05:38:41.540Z,936.64
2023-04-07T05:39:41.490Z,936.64
2023-04-07T05:40:41.464Z,936.61
2023-04-07T05:41:41.477Z,936.59
2023-04-07T05:42:41.440Z,936.65
2023-04-07T05:43:41.465Z,936.63
2023-04-07T05:44:41.414Z,936.60
2023-04-07T05:45:41.496Z,936.60
2023-04-07T05:46:41.556Z,936.59
2023-04-07T05:47:41.609Z,936.63
2023-04-07T05:48:41.446Z,936.62
2023-04-07T05:49:41.529Z,936.64
2023-04-07T05:50:41.457Z,936.65
2023-04-07T05:51:41.360Z,936.61
2023-04-07T05:52:41.374Z,936.66
2023-04-07T05:53:41.499Z,936.62
2023-04-07T05:54:41.314Z,936.60
2023-04-07T05:55:41.341Z,936.60
2023-04-07T05:56:41.451Z,936.61
2023-04-07T05:57:41.283Z,936.58
2023-04-07T05:58:41.302Z,936.61
2023-04-07T05:59:41.276Z,936.59
2023-04-07T06:00:41.320Z,936.58
2023-04-07T06:01:41.424Z,936.59
2023-04-07T06:02:41.486Z,936.61
2023-04-07T06:03:41.359Z,936.59
2023-04-07T06:04:41.213Z,936.56
2023-04-07T06:05:41.269Z,936.61
2023-04-07T06:06:41.600Z,936.60
2023-04-07T06:07:41.199Z,936.59
2023-04-07T06:08:41.169Z,936.58
2023-04-07T06:09:41.144Z,936.56
2023-04-07T06:10:41.181Z,936.63
2023-04-07T06:11:41.138Z,936.61
2023-04-07T06:12:41.255Z,936.55
2023-04-07T06:13:41.160Z,936.57
2023-04-07T06:14:41.098Z,936.56
2023-04-07T06:15:41.101Z,936.57
2023-04-07T06:16:46.130Z,936.60
2023-04-07T06:17:41.178Z,936.61
2023-04-07T06:18:41.116Z,936.63
2023-04-07T06:19:41.134Z,936.60
2023-04-07T06:20:41.140Z,936.63
2023-04-07T06:21:41.066Z,936.59
2023-04-07T06:22:41.048Z,936.62
2023-04-07T06:23:41.032Z,936.56
2023-04-07T06:24:41.129Z,936.59
2023-04-07T06:25:41.035Z,936.60
2023-04-07T06:26:41.146Z,936.57
2023-04-07T06:27:41.044Z,936.61
2023-04-07T06:28:41.045Z,936.58
2023-04-07T06:29:40.988Z,936.54
2023-04-07T06:30:41.164Z,936.59
2023-04-07T06:31:40.948Z,936.59
2023-04-07T06:32:41.032Z,936.58
2023-04-07T06:33:40.947Z,936.61
2023-04-07T06:34:41.011Z,936.64
2023-04-07T06:35:40.939Z,936.60
2023-04-07T06:36:40.992Z,936.62
2023-04-07T06:37:40.913Z,936.60
2023-04-07T06:38:40.880Z,936.59
2023-04-07T06:39:40.967Z,936.60
2023-04-07T06:40:40.851Z,936.55
2023-04-07T06:41:40.885Z,936.56
2023-04-07T06:42:40.867Z,936.58
2023-04-07T06:43:40.821Z,936.56
2023-04-07T06:44:40.830Z,936.55
2023-04-07T06:45:40.898Z,936.57
2023-04-07T06:46:51.801Z,936.47
2023-04-07T06:47:40.859Z,936.52
2023-04-07T06:48:40.831Z,936.48
2023-04-07T06:49:41.021Z,936.44
2023-04-07T06:50:40.747Z,936.41
2023-04-07T06:51:40.728Z,936.43
2023-04-07T06:52:40.707Z,936.38
2023-04-07T06:53:40.730Z,936.43
2023-04-07T06:54:40.681Z,936.43
2023-04-07T06:55:40.666Z,936.43
2023-04-07T06:56:40.660Z,936.34
2023-04-07T06:57:40.646Z,936.38
2023-04-07T06:58:40.660Z,936.39
2023-04-07T06:59:40.670Z,936.37
2023-04-07T07:00:40.681Z,936.30
2023-04-07T07:01:41.625Z,936.30
2023-04-07T07:02:40.787Z,936.28
2023-04-07T07:03:40.741Z,936.29
2023-04-07T07:04:40.630Z,936.28
2023-04-07T07:05:40.602Z,936.31
2023-04-07T07:06:40.613Z,936.28
2023-04-07T07:07:40.538Z,936.31
2023-04-07T07:08:40.542Z,936.36
2023-04-07T07:09:40.546Z,936.32
2023-04-07T07:10:40.552Z,936.29
2023-04-07T07:11:40.553Z,936.26
2023-04-07T07:12:40.510Z,936.26
2023-04-07T07:13:40.478Z,936.18
2023-04-07T07:14:40.557Z,936.14
2023-04-07T07:15:40.565Z,936.13
2023-04-07T07:16:40.468Z,936.17
2023-04-07T07:17:40.556Z,936.08
2023-04-07T07:18:40.430Z,936.08
2023-04-07T07:19:40.435Z,936.04
2023-04-07T07:20:40.476Z,936.04
2023-04-07T07:21:40.401Z,936.05
2023-04-07T07:22:40.444Z,936.02
2023-04-07T07:23:40.415Z,936.03
2023-04-07T07:24:40.383Z,935.96
2023-04-07T07:25:40.561Z,935.96
2023-04-07T07:26:41.093Z,935.94
2023-04-07T07:27:40.382Z,935.94
2023-04-07T07:28:40.339Z,935.94
2023-04-07T07:29:40.311Z,935.91
2023-04-07T07:30:40.310Z,935.94
2023-04-07T07:31:40.483Z,935.93
2023-04-07T07:32:40.290Z,935.87
2023-04-07T07:33:40.311Z,935.88
2023-04-07T07:34:40.254Z,935.81
2023-04-07T07:35:40.243Z,935.85
2023-04-07T07:36:40.243Z,935.84
2023-04-07T07:37:40.256Z,935.78
2023-04-07T07:38:40.263Z,935.80
2023-04-07T07:39:40.215Z,935.77
2023-04-07T07:40:40.242Z,935.76
2023-04-07T07:41:40.251Z,935.70
2023-04-07T07:42:40.190Z,935.70
2023-04-07T07:43:40.176Z,935.72
2023-04-07T07:44:40.180Z,935.73
2023-04-07T07:45:40.147Z,935.70
2023-04-07T07:46:40.324Z,935.67
2023-04-07T07:47:40.205Z,935.67
2023-04-07T07:48:40.172Z,935.66
2023-04-07T07:49:40.100Z,935.69
2023-04-07T07:50:40.122Z,935.62
2023-04-07T07:51:40.105Z,935.59
2023-04-07T07:52:40.162Z,935.64
2023-04-07T07:53:40.134Z,935.60
2023-04-07T07:54:40.194Z,935.62
2023-04-07T07:55:40.089Z,935.55
2023-04-07T07:56:40.045Z,935.52
2023-04-07T07:57:40.015Z,935.52
2023-04-07T07:58:40.541Z,935.47
2023-04-07T07:59:39.984Z,935.43
2023-04-07T08:00:39.991Z,935.41
2023-04-07T08:01:40.035Z,935.46
2023-04-07T08:02:40.087Z,935.47
2023-04-07T08:03:40.216Z,935.45
2023-04-07T08:04:40.062Z,935.45
2023-04-07T08:05:40.002Z,935.49
2023-04-07T08:06:39.948Z,935.41
2023-04-07T08:07:39.924Z,935.42
2023-04-07T08:08:39.920Z,935.41
2023-04-07T08:09:39.919Z,935.38
2023-04-07T08:10:39.920Z,935.38
2023-04-07T08:11:39.852Z,935.37
2023-04-07T08:12:39.878Z,935.42
2023-04-07T08:13:39.866Z,935.43
2023-04-07T08:14:39.841Z,935.37
2023-04-07T08:15:39.861Z,935.39
2023-04-07T08:16:39.968Z,935.36
2023-04-07T08:17:39.841Z,935.37
2023-04-07T08:18:39.784Z,935.39
2023-04-07T08:19:39.800Z,935.36
2023-04-07T08:20:39.780Z,935.35
2023-04-07T08:21:39.780Z,935.39
2023-04-07T08:22:47.374Z,935.36
2023-04-07T08:23:39.749Z,935.39
2023-04-07T08:24:39.723Z,935.43
2023-04-07T08:25:39.759Z,935.42
2023-04-07T08:26:39.712Z,935.50
2023-04-07T08:27:39.687Z,935.47
2023-04-07T08:28:39.684Z,935.45
2023-04-07T08:29:39.682Z,935.45
2023-04-07T08:30:39.691Z,935.39
2023-04-07T08:31:39.750Z,935.43
2023-04-07T08:32:39.706Z,935.44
2023-04-07T08:33:39.626Z,935.38
2023-04-07T08:34:39.628Z,935.40
2023-04-07T08:35:39.624Z,935.32
2023-04-07T08:36:39.613Z,935.35
2023-04-07T08:37:39.692Z,935.25
2023-04-07T08:38:39.605Z,935.27
2023-04-07T08:39:39.601Z,935.28
2023-04-07T08:40:39.698Z,935.31
2023-04-07T08:41:39.544Z,935.27
2023-04-07T08:42:39.553Z,935.30
2023-04-07T08:43:39.564Z,935.26
2023-04-07T08:44:39.523Z,935.06
2023-04-07T08:45:39.516Z,935.06
2023-04-07T08:46:39.535Z,935.11
2023-04-07T08:47:39.547Z,935.07
2023-04-07T08:48:39.526Z,935.10
2023-04-07T08:49:39.457Z,935.03
2023-04-07T08:50:39.474Z,935.09
2023-04-07T08:51:39.473Z,935.02
2023-04-07T08:52:39.443Z,935.15
2023-04-07T08:53:39.417Z,935.09
2023-04-07T08:54:39.523Z,935.05
2023-04-07T08:55:39.470Z,935.09
2023-04-07T08:56:40.116Z,935.01
2023-04-07T08:57:39.388Z,935.14
2023-04-07T08:59:57.354Z,935.16
2023-04-07T09:00:57.357Z,935.05
2023-04-07T09:01:57.309Z,935.09
2023-04-07T09:02:57.284Z,935.09
2023-04-07T09:03:57.295Z,935.23
2023-04-07T09:04:57.241Z,935.12
2023-04-07T09:05:57.320Z,935.15
2023-04-07T09:06:57.212Z,935.05
2023-04-07T09:07:57.194Z,935.09
2023-04-07T09:08:57.147Z,935.06
2023-04-07T09:09:57.161Z,935.08
2023-04-07T09:10:57.153Z,935.07
2023-04-07T09:11:57.200Z,935.06
2023-04-07T09:12:57.120Z,935.07
2023-04-07T09:13:57.098Z,935.01
2023-04-07T09:14:57.070Z,935.03
2023-04-07T09:15:57.140Z,935.09
2023-04-07T09:16:57.264Z,935.11
2023-04-07T09:17:57.248Z,935.15
2023-04-07T09:18:57.051Z,935.05
2023-04-07T09:19:57.030Z,935.09
2023-04-07T09:20:57.061Z,935.10
2023-04-07T09:21:57.064Z,935.13
2023-04-07T09:22:57.018Z,935.05
2023-04-07T09:23:56.970Z,935.13
2023-04-07T09:24:57.121Z,935.16
2023-04-07T09:25:57.010Z,935.15
2023-04-07T09:26:57.247Z,935.18
2023-04-07T09:27:57.113Z,935.14
2023-04-07T09:28:56.924Z,935.18
2023-04-07T09:29:56.923Z,935.20
2023-04-07T09:30:56.930Z,935.18
2023-04-07T09:31:56.998Z,935.18
2023-04-07T09:32:57.432Z,935.20
2023-04-07T09:33:56.862Z,935.20
2023-04-07T09:34:56.858Z,935.18
2023-04-07T09:35:56.990Z,935.21
2023-04-07T09:36:56.873Z,935.31
2023-04-07T09:37:56.949Z,935.29
2023-04-07T09:38:57.311Z,935.31
2023-04-07T09:39:56.987Z,935.27
2023-04-07T09:40:57.491Z,935.29
2023-04-07T09:41:56.868Z,935.31
2023-04-07T09:42:56.801Z,935.28
2023-04-07T09:43:56.786Z,935.34
2023-04-07T09:44:57.742Z,935.33
2023-04-07T09:45:56.832Z,935.28
2023-04-07T09:47:07.588Z,935.31
2023-04-07T09:47:56.785Z,935.31
2023-04-07T09:48:56.738Z,935.35
2023-04-07T09:49:56.695Z,935.35
2023-04-07T09:50:56.692Z,935.33
2023-04-07T09:51:56.674Z,935.37
2023-04-07T09:52:56.652Z,935.34
2023-04-07T09:53:56.706Z,935.39
2023-04-07T09:54:56.661Z,935.40
2023-04-07T09:55:56.683Z,935.40
2023-04-07T09:56:56.627Z,935.38
2023-04-07T09:57:56.635Z,935.40
2023-04-07T09:58:56.613Z,935.36
2023-04-07T09:59:56.604Z,935.42
2023-04-07T10:00:56.670Z,935.41
2023-04-07T10:01:57.090Z,935.39
2023-04-07T10:02:56.846Z,935.40
2023-04-07T10:03:56.645Z,935.47
2023-04-07T10:04:56.531Z,935.45
2023-04-07T10:05:56.544Z,935.43
2023-04-07T10:06:56.531Z,935.46
2023-04-07T10:07:56.504Z,935.45
2023-04-07T10:08:56.530Z,935.43
2023-04-07T10:09:56.480Z,935.43
2023-04-07T10:10:56.507Z,935.41
2023-04-07T10:11:56.468Z,935.42
2023-04-07T10:12:56.449Z,935.44
2023-04-07T10:13:56.452Z,935.41
2023-04-07T10:14:56.430Z,935.44
2023-04-07T10:15:56.449Z,935.42
2023-04-07T10:16:56.481Z,935.44
2023-04-07T10:17:56.432Z,935.45
2023-04-07T10:18:56.421Z,935.46
2023-04-07T10:19:56.368Z,935.46
2023-04-07T10:20:56.384Z,935.44
2023-04-07T10:21:56.363Z,935.44
2023-04-07T10:22:56.344Z,935.46
2023-04-07T10:23:56.336Z,935.45
2023-04-07T10:24:56.384Z,935.45
2023-04-07T10:25:56.334Z,935.45
2023-04-07T10:26:56.303Z,935.50
2023-04-07T10:27:56.341Z,935.50
2023-04-07T10:28:56.286Z,935.47
2023-04-07T10:29:56.290Z,935.52
2023-04-07T10:30:56.312Z,935.50
2023-04-07T10:31:56.260Z,935.47
2023-04-07T10:32:56.330Z,935.50
2023-04-07T10:33:56.253Z,935.48
2023-04-07T10:34:56.237Z,935.41
2023-04-07T10:35:58.534Z,935.49
2023-04-07T10:36:56.200Z,935.49
2023-04-07T10:37:56.219Z,935.45
2023-04-07T10:38:56.177Z,935.40
2023-04-07T10:39:56.168Z,935.43
2023-04-07T10:40:56.158Z,935.48
2023-04-07T10:41:56.208Z,935.47
2023-04-07T10:42:56.168Z,935.47
2023-04-07T10:43:56.167Z,935.50
2023-04-07T10:44:56.114Z,935.51
2023-04-07T10:45:56.228Z,935.50
2023-04-07T10:47:06.892Z,935.52
2023-04-07T10:47:56.161Z,935.56
2023-04-07T10:48:56.101Z,935.55
2023-04-07T10:49:56.061Z,935.54
2023-04-07T10:50:56.122Z,935.51
2023-04-07T10:51:56.093Z,935.57
2023-04-07T10:52:56.072Z,935.55
2023-04-07T10:53:56.026Z,935.54
2023-04-07T10:54:56.095Z,935.56
2023-04-07T10:55:56.012Z,935.57
2023-04-07T10:56:55.984Z,935.55
2023-04-07T10:57:55.984Z,935.54
2023-04-07T10:58:55.992Z,935.55
2023-04-07T10:59:58.278Z,935.56
2023-04-07T11:00:55.945Z,935.49
2023-04-07T11:01:56.047Z,935.54
2023-04-07T11:02:56.207Z,935.48
2023-04-07T11:03:55.995Z,935.47
2023-04-07T11:04:55.900Z,935.47
2023-04-07T11:05:55.926Z,935.53
2023-04-07T11:06:55.901Z,935.47
2023-04-07T11:07:55.894Z,935.46
2023-04-07T11:08:55.933Z,935.44
2023-04-07T11:09:55.850Z,935.49
2023-04-07T11:10:55.884Z,935.46
2023-04-07T11:11:55.828Z,935.49
2023-04-07T11:12:55.849Z,935.41
2023-04-07T11:13:55.813Z,935.46
2023-04-07T11:14:55.802Z,935.49
2023-04-07T11:15:55.969Z,935.44
2023-04-07T11:17:06.624Z,935.52
2023-04-07T11:17:55.884Z,935.46
2023-04-07T11:18:55.756Z,935.42
2023-04-07T11:19:55.737Z,935.37
2023-04-07T11:20:55.731Z,935.35
2023-04-07T11:21:55.748Z,935.40
2023-04-07T11:22:55.737Z,935.40
2023-04-07T11:23:55.705Z,935.45
2023-04-07T11:24:55.688Z,935.52
2023-04-07T11:25:55.690Z,935.48
2023-04-07T11:26:55.730Z,935.40
2023-04-07T11:27:55.704Z,935.39
2023-04-07T11:28:55.661Z,935.34
2023-04-07T11:29:55.651Z,935.36
2023-04-07T11:30:55.666Z,935.36
2023-04-07T11:31:55.659Z,935.33
2023-04-07T11:32:55.631Z,935.32
2023-04-07T11:33:55.649Z,935.32
2023-04-07T11:34:55.585Z,935.28
2023-04-07T11:35:55.797Z,935.25
2023-04-07T11:36:55.564Z,935.26
2023-04-07T11:37:55.800Z,935.27
2023-04-07T11:38:55.571Z,935.24
2023-04-07T11:39:55.556Z,935.26
2023-04-07T11:40:55.533Z,935.26
2023-04-07T11:41:55.550Z,935.29
2023-04-07T11:42:55.495Z,935.32
2023-04-07T11:43:55.516Z,935.29
2023-04-07T11:44:55.554Z,935.30
2023-04-07T11:45:55.562Z,935.31
2023-04-07T11:46:55.588Z,935.32
2023-04-07T11:48:55.449Z,935.35
2023-04-07T11:49:55.461Z,935.31
2023-04-07T11:50:55.411Z,935.30
2023-04-07T11:51:55.402Z,935.37
2023-04-07T11:52:55.390Z,935.35
2023-04-07T11:53:55.410Z,935.31
2023-04-07T11:54:55.404Z,935.30
2023-04-07T11:55:55.373Z,935.31
2023-04-07T11:56:55.391Z,935.26
2023-04-07T11:57:55.342Z,935.32
2023-04-07T11:58:55.341Z,935.35
2023-04-07T11:59:55.347Z,935.25
2023-04-07T12:00:55.308Z,935.28
2023-04-07T12:01:57.715Z,935.28
2023-04-07T12:02:55.584Z,935.22
2023-04-07T12:03:55.503Z,935.39
2023-04-07T12:04:55.385Z,935.28
2023-04-07T12:05:55.301Z,935.49
2023-04-07T12:06:55.252Z,935.44
2023-04-07T12:07:55.233Z,935.22
2023-04-07T12:08:55.236Z,935.26
2023-04-07T12:09:55.216Z,935.22
2023-04-07T12:10:55.241Z,935.30
2023-04-07T12:11:55.180Z,935.43
2023-04-07T12:12:56.970Z,935.23
2023-04-07T12:13:55.219Z,935.41
2023-04-07T12:14:55.160Z,935.40
2023-04-07T12:15:55.144Z,935.36
2023-04-07T12:16:55.241Z,935.20
2023-04-07T12:17:55.164Z,935.00
2023-04-07T12:18:55.132Z,935.20
2023-04-07T12:19:55.106Z,935.18
2023-04-07T12:20:55.112Z,935.23
2023-04-07T12:21:55.124Z,935.28
2023-04-07T12:22:55.077Z,935.19
2023-04-07T12:23:55.071Z,935.23
2023-04-07T12:24:55.059Z,935.00
2023-04-07T12:25:55.052Z,934.95
2023-04-07T12:26:55.089Z,934.97
2023-04-07T12:27:55.055Z,935.19
2023-04-07T12:28:55.046Z,934.98
2023-04-07T12:29:55.005Z,934.96
2023-04-07T12:30:55.039Z,934.98
2023-04-07T12:31:55.039Z,934.95